createdAt,value
2019-01-22T00:05:57.121Z,118.47
2019-01-22T00:08:48.798Z,123.27
2019-01-22T00:11:39.421Z,131.37
2019-01-22T00:14:29.997Z,112.73
2019-01-22T00:20:14.044Z,112.30
2019-01-22T00:22:47.643Z,116.67
2019-01-22T00:25:38.267Z,113.20
2019-01-22T00:28:38.876Z,104.30
2019-01-22T00:31:10.477Z,123.33
2019-01-22T00:34:04.477Z,109.37
2019-01-22T00:36:56.652Z,126.07
2019-01-22T00:39:47.276Z,106.93
2019-01-22T00:42:57.424Z,121.03
2019-01-22T00:45:48.131Z,124.17
2019-01-22T00:57:11.224Z,124.70
2019-01-22T01:08:37.540Z,92.97
2019-01-22T01:11:28.173Z,110.17
2019-01-22T01:14:18.901Z,109.83
2019-01-22T01:23:00.385Z,113.70
2019-01-22T01:25:51.078Z,118.10
2019-01-22T01:31:16.721Z,108.03
2019-01-22T01:34:07.319Z,112.30
2019-01-22T01:36:57.897Z,121.80
2019-01-22T01:39:48.519Z,111.67
2019-01-22T01:42:59.541Z,119.33
2019-01-22T01:51:12.193Z,123.83
2019-01-22T01:54:02.793Z,119.13
2019-01-22T01:56:53.395Z,99.70
2019-01-22T01:59:44.017Z,104.67
2019-01-22T02:05:37.998Z,99.57
2019-01-22T02:11:32.852Z,96.00
2019-01-22T02:24:47.970Z,94.33
2019-01-22T02:28:42.911Z,103.80
2019-01-22T02:32:30.635Z,101.03
2019-01-22T02:35:55.332Z,105.37
2019-01-22T02:45:41.058Z,104.47
2019-01-22T02:49:28.826Z,107.63
2019-01-22T02:53:16.656Z,112.77
2019-01-22T02:57:04.349Z,106.97
2019-01-22T03:04:32.412Z,111.43
2019-01-22T03:08:28.405Z,116.87
2019-01-22T03:12:16.138Z,102.47
2019-01-22T03:19:22.279Z,107.90
2019-01-22T03:23:10.018Z,98.33
2019-01-22T03:26:57.732Z,113.77
2019-01-22T03:30:45.480Z,108.50
2019-01-22T03:34:33.205Z,88.07
2019-01-22T03:41:14.315Z,103.10
2019-01-22T03:44:31.114Z,97.70
2019-01-22T03:48:01.554Z,91.93
2019-01-22T03:51:33.903Z,102.30
2019-01-22T03:55:02.285Z,101.80
2019-01-22T03:58:32.978Z,104.20
2019-01-22T04:04:48.379Z,94.93
2019-01-22T04:08:17.279Z,101.70
2019-01-22T04:14:30.515Z,109.63
2019-01-22T04:17:42.455Z,91.07
2019-01-22T04:20:51.997Z,99.70
2019-01-22T04:24:14.679Z,103.97
2019-01-22T04:27:26.871Z,109.27
2019-01-22T04:31:14.618Z,99.03
2019-01-22T04:34:36.447Z,106.40
2019-01-22T04:38:04.871Z,105.73
2019-01-22T04:41:33.601Z,116.53
2019-01-22T04:45:02.076Z,119.83
2019-01-22T04:48:31.127Z,131.47
2019-01-22T04:52:03.207Z,98.73
2019-01-22T04:55:34.597Z,105.43
2019-01-22T04:59:07.816Z,127.00
2019-01-22T05:02:55.537Z,106.43
2019-01-22T05:06:43.293Z,116.10
2019-01-22T05:13:46.863Z,113.03
2019-01-22T05:17:34.586Z,115.10
2019-01-22T05:21:10.820Z,97.60
2019-01-22T05:24:41.930Z,121.53
2019-01-22T05:28:33.525Z,137.60
2019-01-22T05:32:21.357Z,101.20
2019-01-22T05:39:08.814Z,115.40
2019-01-22T05:42:56.533Z,112.13
2019-01-22T05:49:50.893Z,105.30
2019-01-22T05:53:40.081Z,106.57
2019-01-22T05:57:14.295Z,104.80
2019-01-22T06:04:18.132Z,127.83
2019-01-22T06:08:05.911Z,113.10
2019-01-22T06:11:53.753Z,117.77
2019-01-22T06:15:33.587Z,116.67
2019-01-22T06:18:50.340Z,113.13
2019-01-22T06:22:38.059Z,112.63
2019-01-22T06:35:46.098Z,107.40
2019-01-22T06:39:14.469Z,111.97
2019-01-22T06:43:02.231Z,112.33
2019-01-22T06:49:59.774Z,99.33
2019-01-22T06:53:47.510Z,116.57
2019-01-22T06:57:35.257Z,124.33
2019-01-22T07:04:39.756Z,132.30
2019-01-22T07:07:47.884Z,103.43
2019-01-22T07:14:21.370Z,118.70
2019-01-22T07:17:44.858Z,128.80
2019-01-22T07:24:33.497Z,138.07
2019-01-22T07:28:21.262Z,121.13
2019-01-22T07:32:08.980Z,139.77
2019-01-22T07:35:34.685Z,123.23
2019-01-22T07:39:22.401Z,130.30
2019-01-22T07:43:10.135Z,121.33
2019-01-22T07:46:40.536Z,125.17
2019-01-22T07:50:28.320Z,121.07
2019-01-22T07:53:57.467Z,115.73
2019-01-22T07:57:45.230Z,150.17
2019-01-22T08:01:32.970Z,121.27
2019-01-22T08:05:20.744Z,130.23
2019-01-22T08:08:49.129Z,127.53
2019-01-22T08:12:36.859Z,129.73
2019-01-22T08:16:03.770Z,132.93
2019-01-22T08:19:26.359Z,147.90
2019-01-22T08:22:39.335Z,141.97
2019-01-22T08:25:57.297Z,150.43
2019-01-22T08:29:26.743Z,150.20
2019-01-22T08:33:14.541Z,150.87
2019-01-22T08:37:02.350Z,138.23
2019-01-22T08:43:52.670Z,144.30
2019-01-22T08:47:23.070Z,149.63
2019-01-22T08:57:16.992Z,139.20
2019-01-22T09:00:47.798Z,133.23
2019-01-22T09:04:35.541Z,141.30
2019-01-22T09:08:23.332Z,128.73
2019-01-22T09:12:11.081Z,131.97
2019-01-22T09:15:58.786Z,146.77
2019-01-22T09:19:46.525Z,117.00
2019-01-22T09:23:53.795Z,139.90
2019-01-22T09:27:41.508Z,136.47
2019-01-22T09:31:29.253Z,130.67
2019-01-22T09:34:58.076Z,143.90
2019-01-22T09:43:38.087Z,154.73
2019-01-22T09:46:28.690Z,156.23
2019-01-22T09:49:19.285Z,174.87
2019-01-22T09:54:53.912Z,152.90
2019-01-22T09:57:44.559Z,166.57
2019-01-22T10:06:09.978Z,158.83
2019-01-22T10:09:00.607Z,161.43
2019-01-22T10:11:51.230Z,160.40
2019-01-22T10:14:41.856Z,147.53
2019-01-22T10:18:22.480Z,158.00
2019-01-22T10:20:55.337Z,165.33
2019-01-22T10:26:29.437Z,154.20
2019-01-22T10:29:20.289Z,165.00
2019-01-22T10:32:10.903Z,165.03
2019-01-22T10:38:07.808Z,149.67
2019-01-22T10:41:00.151Z,156.47
2019-01-22T10:43:53.134Z,173.57
2019-01-22T10:53:24.084Z,175.90
2019-01-22T10:55:57.961Z,165.90
2019-01-22T10:58:30.254Z,185.90
2019-01-22T11:01:21.010Z,204.30
2019-01-22T11:04:11.654Z,180.53
2019-01-22T11:07:02.316Z,180.53
2019-01-22T11:16:19.472Z,194.03
2019-01-22T11:19:10.164Z,177.20
2019-01-22T11:21:41.607Z,193.77
2019-01-22T11:24:32.236Z,199.47
2019-01-22T11:27:22.924Z,185.37
2019-01-22T11:30:25.450Z,184.90
2019-01-22T11:32:57.434Z,197.33
2019-01-22T11:35:48.071Z,205.17
2019-01-22T11:38:57.922Z,175.17
2019-01-22T11:41:48.519Z,175.33
2019-01-22T11:44:39.120Z,175.27
2019-01-22T11:47:30.029Z,188.63
2019-01-22T11:50:20.829Z,180.50
2019-01-22T11:52:52.474Z,187.80
2019-01-22T11:55:43.147Z,171.87
2019-01-22T12:04:02.580Z,186.00
2019-01-22T12:06:53.207Z,171.30
2019-01-22T12:09:43.845Z,169.77
2019-01-22T12:12:53.931Z,171.20
2019-01-22T12:18:31.269Z,183.23
2019-01-22T12:27:09.478Z,163.23
2019-01-22T12:32:46.592Z,178.53
2019-01-22T12:35:23.618Z,172.23
2019-01-22T12:38:24.380Z,176.57
2019-01-22T12:40:55.703Z,179.23
2019-01-22T12:43:46.434Z,176.67
2019-01-22T12:46:37.069Z,180.17
2019-01-22T12:49:27.683Z,171.63
2019-01-22T12:52:37.460Z,165.80
2019-01-22T12:58:33.917Z,170.07
2019-01-22T13:01:15.711Z,173.17
2019-01-22T13:03:46.983Z,186.80
2019-01-22T13:09:40.774Z,177.00
2019-01-22T13:12:33.154Z,166.70
2019-01-22T13:15:23.863Z,161.37
2019-01-22T13:18:14.479Z,171.67
2019-01-22T13:23:50.802Z,171.70
2019-01-22T13:37:26.823Z,190.57
2019-01-22T13:40:17.590Z,170.17
2019-01-22T13:45:52.433Z,182.77
2019-01-22T13:48:43.161Z,178.80
2019-01-22T13:51:33.759Z,188.90
2019-01-22T13:54:24.359Z,213.00
2019-01-22T14:02:46.315Z,176.33
2019-01-22T14:05:36.909Z,173.53
2019-01-22T14:11:12.000Z,150.43
2019-01-22T14:14:02.713Z,162.67
2019-01-22T14:16:45.925Z,164.70
2019-01-22T14:19:36.541Z,147.07
2019-01-22T14:22:27.228Z,140.97
2019-01-22T14:25:18.977Z,164.87
2019-01-22T14:28:09.566Z,160.53
2019-01-22T14:31:00.198Z,157.63
2019-01-22T14:33:50.879Z,160.10
2019-01-22T14:36:22.101Z,152.47
2019-01-22T14:44:59.604Z,157.90
2019-01-22T14:47:50.212Z,155.03
2019-01-22T14:50:40.856Z,177.33
2019-01-22T14:53:31.503Z,158.43
2019-01-22T14:56:22.079Z,160.33
2019-01-22T15:01:56.066Z,160.10
2019-01-22T15:04:27.482Z,185.47
2019-01-22T15:13:05.564Z,181.73
2019-01-22T15:16:15.434Z,172.57
2019-01-22T15:24:32.550Z,174.67
2019-01-22T15:30:32.618Z,158.40
2019-01-22T15:33:35.908Z,163.33
2019-01-22T15:36:08.547Z,163.47
2019-01-22T15:41:44.498Z,167.93
2019-01-22T15:44:15.886Z,138.27
2019-01-22T15:47:06.476Z,172.77
2019-01-22T15:49:57.156Z,163.93
2019-01-22T15:52:47.808Z,150.37
2019-01-22T15:55:38.589Z,152.37
2019-01-22T15:58:29.233Z,141.90
2019-01-22T16:01:00.546Z,140.17
2019-01-22T16:03:51.222Z,158.30
2019-01-22T16:06:41.982Z,153.77
2019-01-22T16:09:32.648Z,160.97
2019-01-22T16:15:19.057Z,148.47
2019-01-22T16:18:32.524Z,128.20
2019-01-22T16:21:53.663Z,155.73
2019-01-22T16:24:27.531Z,138.63
2019-01-22T16:27:18.229Z,150.87
2019-01-22T16:30:20.685Z,131.73
2019-01-22T16:32:52.696Z,131.43
2019-01-22T16:35:43.309Z,142.97
2019-01-22T16:38:34.076Z,130.30
2019-01-22T16:41:12.316Z,134.87
2019-01-22T16:44:03.067Z,147.87
2019-01-22T16:46:53.691Z,148.87
2019-01-22T16:55:43.219Z,143.50
2019-01-22T16:58:14.486Z,143.33
2019-01-22T17:00:53.041Z,157.63
2019-01-22T17:03:46.756Z,154.70
2019-01-22T17:06:37.359Z,145.87
2019-01-22T17:18:23.140Z,158.60
2019-01-22T17:21:13.770Z,168.53
2019-01-22T17:24:09.560Z,141.37
2019-01-22T17:26:44.611Z,151.13
2019-01-22T17:41:18.925Z,155.40
2019-01-22T17:44:11.080Z,136.93
2019-01-22T17:46:52.509Z,155.10
2019-01-22T17:52:36.690Z,165.63
2019-01-22T17:55:16.560Z,158.93
2019-01-22T17:58:07.141Z,164.53
2019-01-22T18:06:25.134Z,169.20
2019-01-22T18:11:46.147Z,142.50
2019-01-22T18:14:36.876Z,153.60
2019-01-22T18:17:27.548Z,138.73
2019-01-22T18:23:23.293Z,133.77
2019-01-22T18:26:14.040Z,136.60
2019-01-22T18:29:04.797Z,156.00
2019-01-22T18:31:55.569Z,128.93
2019-01-22T18:40:15.889Z,127.03
2019-01-22T18:42:48.409Z,113.87
2019-01-22T18:45:39.085Z,122.93
2019-01-22T18:48:29.785Z,112.60
2019-01-22T18:51:20.460Z,126.43
2019-01-22T18:54:11.239Z,119.03
2019-01-22T18:57:01.814Z,118.50
2019-01-22T18:59:52.540Z,102.40
2019-01-22T19:02:43.353Z,106.60
2019-01-22T19:05:33.959Z,96.00
2019-01-22T19:08:24.568Z,118.10
2019-01-22T19:11:15.208Z,105.57
2019-01-22T19:23:23.154Z,114.17
2019-01-22T19:26:13.856Z,111.37
2019-01-22T19:29:04.637Z,102.33
2019-01-22T19:31:55.283Z,113.77
2019-01-22T19:34:45.927Z,116.60
2019-01-22T19:37:56.100Z,121.80
2019-01-22T19:40:46.798Z,114.93
2019-01-22T19:43:56.701Z,113.67
2019-01-22T19:46:28.039Z,119.23
2019-01-22T19:49:18.689Z,112.00
2019-01-22T19:52:09.120Z,102.53
2019-01-22T19:54:59.781Z,95.60
2019-01-22T19:57:50.482Z,112.53
2019-01-22T20:03:44.629Z,97.17
2019-01-22T20:09:19.642Z,92.60
2019-01-22T20:12:10.309Z,90.70
2019-01-22T20:17:46.749Z,108.67
2019-01-22T20:23:43.472Z,92.20
2019-01-22T20:26:44.999Z,85.80
2019-01-22T20:29:17.981Z,99.90
2019-01-22T20:41:04.830Z,82.53
2019-01-22T20:44:14.558Z,89.07
2019-01-22T20:47:05.159Z,107.93
2019-01-22T20:49:55.879Z,93.83
2019-01-22T20:52:27.310Z,88.60
2019-01-22T20:55:49.963Z,88.50
2019-01-22T20:58:22.910Z,104.53
2019-01-22T21:01:13.616Z,89.00
2019-01-22T21:07:11.600Z,92.63
2019-01-22T21:10:02.220Z,89.90
2019-01-22T21:15:28.239Z,90.23
2019-01-22T21:18:18.914Z,134.87
2019-01-22T21:21:09.569Z,94.57
2019-01-22T21:24:00.215Z,99.27
2019-01-22T21:29:33.933Z,105.87
2019-01-22T21:32:24.596Z,96.43
2019-01-22T21:35:15.760Z,97.13
2019-01-22T21:37:47.095Z,95.47
2019-01-22T21:43:21.906Z,92.03
2019-01-22T21:48:38.957Z,114.30
2019-01-22T21:54:14.135Z,111.50
2019-01-22T21:56:56.157Z,92.77
2019-01-22T21:59:28.030Z,97.20
2019-01-22T22:07:45.782Z,94.73
2019-01-22T22:10:38.841Z,87.57
2019-01-22T22:13:29.402Z,89.40
2019-01-22T22:16:39.027Z,79.47
2019-01-22T22:19:50.207Z,86.20
2019-01-22T22:28:51.642Z,79.67
2019-01-22T22:42:43.845Z,70.97
2019-01-22T22:48:20.354Z,70.37
2019-01-22T22:51:10.935Z,68.07
2019-01-22T22:54:02.296Z,73.00
2019-01-22T22:57:12.432Z,68.60
2019-01-22T22:59:53.405Z,68.73
2019-01-22T23:02:55.449Z,61.40
2019-01-22T23:05:29.445Z,63.57
2019-01-22T23:11:04.382Z,74.07
2019-01-22T23:13:55.041Z,105.33
2019-01-22T23:16:45.792Z,69.87
2019-01-22T23:22:45.355Z,67.07
2019-01-22T23:28:20.414Z,62.67
2019-01-22T23:31:11.064Z,60.53
2019-01-22T23:34:01.689Z,60.43
2019-01-22T23:36:52.363Z,57.17
2019-01-22T23:39:42.967Z,67.50
2019-01-22T23:42:53.098Z,55.93
2019-01-22T23:45:43.722Z,50.10
2019-01-22T23:48:34.359Z,59.40
2019-01-22T23:51:17.494Z,56.73
2019-01-22T23:54:27.193Z,50.30
2019-01-22T23:57:20.101Z,54.70
